sensor_id;sensor_type;location;lat;lon;timestamp;temperature;humidity
21570;DHT22;57598;50.888;4.746;2023-03-19T00:01:07;11.20;99.90
21570;DHT22;57598;50.888;4.746;2023-03-19T00:03:34;11.20;99.90
21570;DHT22;57598;50.888;4.746;2023-03-19T00:06:05;11.20;99.90
21570;DHT22;57598;50.888;4.746;2023-03-19T00:08:32;11.20;99.90
21570;DHT22;57598;50.888;4.746;2023-03-19T00:11:05;11.20;99.90
21570;DHT22;57598;50.888;4.746;2023-03-19T00:13:32;11.20;99.90
21570;DHT22;57598;50.888;4.746;2023-03-19T00:15:59;11.10;99.90
21570;DHT22;57598;50.888;4.746;2023-03-19T00:18:29;11.20;99.90
21570;DHT22;57598;50.888;4.746;2023-03-19T00:20:57;11.20;99.90
21570;DHT22;57598;50.888;4.746;2023-03-19T00:23:24;11.20;99.90
21570;DHT22;57598;50.888;4.746;2023-03-19T00:25:53;11.30;99.90
21570;DHT22;57598;50.888;4.746;2023-03-19T00:28:21;11.30;99.90
21570;DHT22;57598;50.888;4.746;2023-03-19T00:30:48;11.30;99.90
21570;DHT22;57598;50.888;4.746;2023-03-19T00:33:15;11.30;99.90
21570;DHT22;57598;50.888;4.746;2023-03-19T00:35:44;11.30;99.90
21570;DHT22;57598;50.888;4.746;2023-03-19T00:38:11;11.30;99.90
21570;DHT22;57598;50.888;4.746;2023-03-19T00:40:38;11.30;99.90
21570;DHT22;57598;50.888;4.746;2023-03-19T00:43:05;11.30;99.90
21570;DHT22;57598;50.888;4.746;2023-03-19T00:45:32;11.30;99.90
21570;DHT22;57598;50.888;4.746;2023-03-19T00:48:03;11.20;99.90
21570;DHT22;57598;50.888;4.746;2023-03-19T00:50:31;11.30;99.90
21570;DHT22;57598;50.888;4.746;2023-03-19T00:52:59;11.30;99.90
21570;DHT22;57598;50.888;4.746;2023-03-19T00:55:26;11.30;99.90
21570;DHT22;57598;50.888;4.746;2023-03-19T00:57:53;11.30;99.90
21570;DHT22;57598;50.888;4.746;2023-03-19T01:00:20;11.30;99.90
21570;DHT22;57598;50.888;4.746;2023-03-19T01:02:48;11.30;99.90
21570;DHT22;57598;50.888;4.746;2023-03-19T01:05:15;11.30;99.90
21570;DHT22;57598;50.888;4.746;2023-03-19T01:07:42;11.30;99.90
21570;DHT22;57598;50.888;4.746;2023-03-19T01:10:11;11.30;99.90
21570;DHT22;57598;50.888;4.746;2023-03-19T01:12:38;11.30;99.90
21570;DHT22;57598;50.888;4.746;2023-03-19T01:15:07;11.30;99.90
21570;DHT22;57598;50.888;4.746;2023-03-19T01:17:34;11.30;99.90
21570;DHT22;57598;50.888;4.746;2023-03-19T01:20:01;11.40;99.90
21570;DHT22;57598;50.888;4.746;2023-03-19T01:22:31;11.40;99.90
21570;DHT22;57598;50.888;4.746;2023-03-19T01:25:01;11.40;99.90
21570;DHT22;57598;50.888;4.746;2023-03-19T01:27:29;11.40;99.90
21570;DHT22;57598;50.888;4.746;2023-03-19T01:30:03;11.40;99.90
21570;DHT22;57598;50.888;4.746;2023-03-19T01:32:30;11.40;99.90
21570;DHT22;57598;50.888;4.746;2023-03-19T01:34:58;11.40;99.90
21570;DHT22;57598;50.888;4.746;2023-03-19T01:37:25;11.40;99.90
21570;DHT22;57598;50.888;4.746;2023-03-19T01:39:52;11.40;99.90
21570;DHT22;57598;50.888;4.746;2023-03-19T01:42:19;11.40;99.90
21570;DHT22;57598;50.888;4.746;2023-03-19T01:44:47;11.40;99.90
21570;DHT22;57598;50.888;4.746;2023-03-19T01:47:17;11.40;99.90
21570;DHT22;57598;50.888;4.746;2023-03-19T01:49:48;11.40;99.90
21570;DHT22;57598;50.888;4.746;2023-03-19T01:52:23;11.40;99.90
21570;DHT22;57598;50.888;4.746;2023-03-19T01:55:02;11.40;99.90
21570;DHT22;57598;50.888;4.746;2023-03-19T01:57:33;11.40;99.90
21570;DHT22;57598;50.888;4.746;2023-03-19T02:00:03;11.50;99.90
21570;DHT22;57598;50.888;4.746;2023-03-19T02:02:33;11.40;99.90
21570;DHT22;57598;50.888;4.746;2023-03-19T02:05:06;11.40;99.90
21570;DHT22;57598;50.888;4.746;2023-03-19T02:07:35;11.50;99.90
21570;DHT22;57598;50.888;4.746;2023-03-19T02:10:04;11.50;99.90
21570;DHT22;57598;50.888;4.746;2023-03-19T02:12:31;11.50;99.90
21570;DHT22;57598;50.888;4.746;2023-03-19T02:14:58;11.50;99.90
21570;DHT22;57598;50.888;4.746;2023-03-19T02:17:27;11.50;99.90
21570;DHT22;57598;50.888;4.746;2023-03-19T02:19:58;11.50;99.90
21570;DHT22;57598;50.888;4.746;2023-03-19T02:22:31;11.50;99.90
21570;DHT22;57598;50.888;4.746;2023-03-19T02:25:02;11.50;99.90
21570;DHT22;57598;50.888;4.746;2023-03-19T02:27:48;11.50;99.90
21570;DHT22;57598;50.888;4.746;2023-03-19T02:30:27;11.50;99.90
21570;DHT22;57598;50.888;4.746;2023-03-19T02:33:00;11.40;99.90
21570;DHT22;57598;50.888;4.746;2023-03-19T02:35:30;11.50;99.90
21570;DHT22;57598;50.888;4.746;2023-03-19T02:37:57;11.50;99.90
21570;DHT22;57598;50.888;4.746;2023-03-19T02:40:28;11.50;99.90
21570;DHT22;57598;50.888;4.746;2023-03-19T02:42:57;11.40;99.90
21570;DHT22;57598;50.888;4.746;2023-03-19T02:45:28;11.50;99.90
21570;DHT22;57598;50.888;4.746;2023-03-19T02:47:56;11.40;99.90
21570;DHT22;57598;50.888;4.746;2023-03-19T02:50:23;11.40;99.90
21570;DHT22;57598;50.888;4.746;2023-03-19T02:52:50;11.40;99.90
21570;DHT22;57598;50.888;4.746;2023-03-19T02:55:17;11.40;99.90
21570;DHT22;57598;50.888;4.746;2023-03-19T02:57:46;11.40;99.90
21570;DHT22;57598;50.888;4.746;2023-03-19T03:00:15;11.50;99.90
21570;DHT22;57598;50.888;4.746;2023-03-19T03:02:43;11.50;99.90
21570;DHT22;57598;50.888;4.746;2023-03-19T03:05:10;11.40;99.90
21570;DHT22;57598;50.888;4.746;2023-03-19T03:07:38;11.40;99.90
21570;DHT22;57598;50.888;4.746;2023-03-19T03:10:09;11.40;99.90
21570;DHT22;57598;50.888;4.746;2023-03-19T03:12:36;11.40;99.90
21570;DHT22;57598;50.888;4.746;2023-03-19T03:15:05;11.50;99.90
21570;DHT22;57598;50.888;4.746;2023-03-19T03:17:38;11.50;99.90
21570;DHT22;57598;50.888;4.746;2023-03-19T03:20:07;11.50;99.90
21570;DHT22;57598;50.888;4.746;2023-03-19T03:22:42;11.50;99.90
21570;DHT22;57598;50.888;4.746;2023-03-19T03:25:10;11.50;99.90
21570;DHT22;57598;50.888;4.746;2023-03-19T03:27:38;11.40;99.90
21570;DHT22;57598;50.888;4.746;2023-03-19T03:30:06;11.40;99.90
21570;DHT22;57598;50.888;4.746;2023-03-19T03:32:34;11.40;99.90
21570;DHT22;57598;50.888;4.746;2023-03-19T03:35:02;11.40;99.90
21570;DHT22;57598;50.888;4.746;2023-03-19T03:37:30;11.30;99.90
21570;DHT22;57598;50.888;4.746;2023-03-19T03:40:00;11.30;99.90
21570;DHT22;57598;50.888;4.746;2023-03-19T03:42:32;11.30;99.90
21570;DHT22;57598;50.888;4.746;2023-03-19T03:44:59;11.40;99.90
21570;DHT22;57598;50.888;4.746;2023-03-19T03:47:26;11.40;99.90
21570;DHT22;57598;50.888;4.746;2023-03-19T03:49:53;11.40;99.90
21570;DHT22;57598;50.888;4.746;2023-03-19T03:52:24;11.40;99.90
21570;DHT22;57598;50.888;4.746;2023-03-19T03:55:02;11.40;99.90
21570;DHT22;57598;50.888;4.746;2023-03-19T03:57:29;11.40;99.90
21570;DHT22;57598;50.888;4.746;2023-03-19T03:59:56;11.40;99.90
21570;DHT22;57598;50.888;4.746;2023-03-19T04:02:23;11.50;99.90
21570;DHT22;57598;50.888;4.746;2023-03-19T04:04:53;11.50;99.90
21570;DHT22;57598;50.888;4.746;2023-03-19T04:07:20;11.40;99.90
21570;DHT22;57598;50.888;4.746;2023-03-19T04:09:49;11.40;99.90
21570;DHT22;57598;50.888;4.746;2023-03-19T04:12:16;11.50;99.90
21570;DHT22;57598;50.888;4.746;2023-03-19T04:14:43;11.40;99.90
21570;DHT22;57598;50.888;4.746;2023-03-19T04:17:10;11.50;99.90
21570;DHT22;57598;50.888;4.746;2023-03-19T04:19:37;11.40;99.90
21570;DHT22;57598;50.888;4.746;2023-03-19T04:22:04;11.50;99.90
21570;DHT22;57598;50.888;4.746;2023-03-19T04:24:35;11.50;99.90
21570;DHT22;57598;50.888;4.746;2023-03-19T04:27:03;11.40;99.90
21570;DHT22;57598;50.888;4.746;2023-03-19T04:29:39;11.40;99.90
21570;DHT22;57598;50.888;4.746;2023-03-19T04:32:06;11.50;99.90
21570;DHT22;57598;50.888;4.746;2023-03-19T04:34:33;11.40;99.90
21570;DHT22;57598;50.888;4.746;2023-03-19T04:37:00;11.40;99.90
21570;DHT22;57598;50.888;4.746;2023-03-19T04:39:27;11.50;99.90
21570;DHT22;57598;50.888;4.746;2023-03-19T04:41:54;11.50;99.90
21570;DHT22;57598;50.888;4.746;2023-03-19T04:44:23;11.50;99.90
21570;DHT22;57598;50.888;4.746;2023-03-19T04:46:50;11.50;99.90
21570;DHT22;57598;50.888;4.746;2023-03-19T04:49:17;11.50;99.90
21570;DHT22;57598;50.888;4.746;2023-03-19T04:51:45;11.60;99.90
21570;DHT22;57598;50.888;4.746;2023-03-19T04:54:12;11.50;99.90
21570;DHT22;57598;50.888;4.746;2023-03-19T04:56:42;11.50;99.90
21570;DHT22;57598;50.888;4.746;2023-03-19T04:59:09;11.40;99.90
21570;DHT22;57598;50.888;4.746;2023-03-19T05:01:37;11.30;99.90
21570;DHT22;57598;50.888;4.746;2023-03-19T05:04:04;11.20;99.90
21570;DHT22;57598;50.888;4.746;2023-03-19T05:06:31;11.20;99.90
21570;DHT22;57598;50.888;4.746;2023-03-19T05:08:58;11.10;99.90
21570;DHT22;57598;50.888;4.746;2023-03-19T05:11:26;11.00;99.90
21570;DHT22;57598;50.888;4.746;2023-03-19T05:13:53;11.00;99.90
21570;DHT22;57598;50.888;4.746;2023-03-19T05:16:23;11.00;99.90
21570;DHT22;57598;50.888;4.746;2023-03-19T05:18:51;10.90;99.90
21570;DHT22;57598;50.888;4.746;2023-03-19T05:21:18;10.90;99.90
21570;DHT22;57598;50.888;4.746;2023-03-19T05:23:46;10.80;99.90
21570;DHT22;57598;50.888;4.746;2023-03-19T05:26:16;10.80;99.90
21570;DHT22;57598;50.888;4.746;2023-03-19T05:28:43;10.70;99.90
21570;DHT22;57598;50.888;4.746;2023-03-19T05:31:20;10.80;99.90
21570;DHT22;57598;50.888;4.746;2023-03-19T05:33:47;10.70;99.90
21570;DHT22;57598;50.888;4.746;2023-03-19T05:36:16;10.70;99.90
21570;DHT22;57598;50.888;4.746;2023-03-19T05:38:43;10.60;99.90
21570;DHT22;57598;50.888;4.746;2023-03-19T05:41:10;10.60;99.90
21570;DHT22;57598;50.888;4.746;2023-03-19T05:43:37;10.60;99.90
21570;DHT22;57598;50.888;4.746;2023-03-19T05:46:04;10.60;99.90
21570;DHT22;57598;50.888;4.746;2023-03-19T05:48:31;10.50;99.90
21570;DHT22;57598;50.888;4.746;2023-03-19T05:50:58;10.60;99.90
21570;DHT22;57598;50.888;4.746;2023-03-19T05:53:29;10.60;99.90
21570;DHT22;57598;50.888;4.746;2023-03-19T05:55:56;10.60;99.90
21570;DHT22;57598;50.888;4.746;2023-03-19T05:58:23;10.60;99.90
21570;DHT22;57598;50.888;4.746;2023-03-19T06:00:50;10.60;99.90
21570;DHT22;57598;50.888;4.746;2023-03-19T06:03:27;10.60;99.90
21570;DHT22;57598;50.888;4.746;2023-03-19T06:05:54;10.50;99.90
21570;DHT22;57598;50.888;4.746;2023-03-19T06:08:22;10.50;99.90
21570;DHT22;57598;50.888;4.746;2023-03-19T06:10:51;10.50;99.90
21570;DHT22;57598;50.888;4.746;2023-03-19T06:13:24;10.50;99.90
21570;DHT22;57598;50.888;4.746;2023-03-19T06:15:52;10.60;99.90
21570;DHT22;57598;50.888;4.746;2023-03-19T06:18:19;10.60;99.90
21570;DHT22;57598;50.888;4.746;2023-03-19T06:20:46;10.60;99.90
21570;DHT22;57598;50.888;4.746;2023-03-19T06:23:16;10.70;99.90
21570;DHT22;57598;50.888;4.746;2023-03-19T06:25:44;10.70;99.90
21570;DHT22;57598;50.888;4.746;2023-03-19T06:28:12;10.70;99.90
21570;DHT22;57598;50.888;4.746;2023-03-19T06:30:39;10.80;99.90
21570;DHT22;57598;50.888;4.746;2023-03-19T06:33:10;10.90;99.90
21570;DHT22;57598;50.888;4.746;2023-03-19T06:35:37;10.90;99.90
21570;DHT22;57598;50.888;4.746;2023-03-19T06:38:04;11.00;99.90
21570;DHT22;57598;50.888;4.746;2023-03-19T06:40:32;11.00;99.90
21570;DHT22;57598;50.888;4.746;2023-03-19T06:42:59;11.00;99.90
21570;DHT22;57598;50.888;4.746;2023-03-19T06:45:27;11.00;99.90
21570;DHT22;57598;50.888;4.746;2023-03-19T06:47:55;11.10;99.90
21570;DHT22;57598;50.888;4.746;2023-03-19T06:50:22;11.10;99.90
21570;DHT22;57598;50.888;4.746;2023-03-19T06:52:49;11.10;99.90
21570;DHT22;57598;50.888;4.746;2023-03-19T06:55:16;11.00;99.90
21570;DHT22;57598;50.888;4.746;2023-03-19T06:57:47;11.10;99.90
21570;DHT22;57598;50.888;4.746;2023-03-19T07:00:15;11.20;99.90
21570;DHT22;57598;50.888;4.746;2023-03-19T07:02:44;11.20;99.90
21570;DHT22;57598;50.888;4.746;2023-03-19T07:05:17;11.30;99.90
21570;DHT22;57598;50.888;4.746;2023-03-19T07:07:44;11.40;99.90
21570;DHT22;57598;50.888;4.746;2023-03-19T07:10:11;11.50;99.90
21570;DHT22;57598;50.888;4.746;2023-03-19T07:12:38;11.50;99.90
21570;DHT22;57598;50.888;4.746;2023-03-19T07:15:06;11.50;99.90
21570;DHT22;57598;50.888;4.746;2023-03-19T07:17:33;11.50;99.90
21570;DHT22;57598;50.888;4.746;2023-03-19T07:20:02;11.50;99.90
21570;DHT22;57598;50.888;4.746;2023-03-19T07:22:29;11.50;99.90
21570;DHT22;57598;50.888;4.746;2023-03-19T07:24:56;11.60;99.90
21570;DHT22;57598;50.888;4.746;2023-03-19T07:27:23;11.70;99.90
21570;DHT22;57598;50.888;4.746;2023-03-19T07:29:50;11.70;99.90
21570;DHT22;57598;50.888;4.746;2023-03-19T07:32:20;11.70;99.90
21570;DHT22;57598;50.888;4.746;2023-03-19T07:34:48;11.70;99.90
21570;DHT22;57598;50.888;4.746;2023-03-19T07:37:16;11.70;99.90
21570;DHT22;57598;50.888;4.746;2023-03-19T07:39:43;12.10;99.90
21570;DHT22;57598;50.888;4.746;2023-03-19T07:42:10;12.30;99.90
21570;DHT22;57598;50.888;4.746;2023-03-19T07:44:37;12.70;99.90
21570;DHT22;57598;50.888;4.746;2023-03-19T07:47:05;13.00;99.90
21570;DHT22;57598;50.888;4.746;2023-03-19T07:49:32;13.50;99.90
21570;DHT22;57598;50.888;4.746;2023-03-19T07:51:59;13.80;99.90
21570;DHT22;57598;50.888;4.746;2023-03-19T07:54:30;14.10;99.90
21570;DHT22;57598;50.888;4.746;2023-03-19T07:56:57;14.20;99.90
21570;DHT22;57598;50.888;4.746;2023-03-19T07:59:24;14.30;99.90
21570;DHT22;57598;50.888;4.746;2023-03-19T08:01:51;14.60;99.90
21570;DHT22;57598;50.888;4.746;2023-03-19T08:04:19;14.70;99.90
21570;DHT22;57598;50.888;4.746;2023-03-19T08:06:46;14.80;99.90
21570;DHT22;57598;50.888;4.746;2023-03-19T08:09:13;15.10;99.90
21570;DHT22;57598;50.888;4.746;2023-03-19T08:11:42;15.60;99.90
21570;DHT22;57598;50.888;4.746;2023-03-19T08:14:10;15.70;99.90
21570;DHT22;57598;50.888;4.746;2023-03-19T08:16:37;15.80;99.90
21570;DHT22;57598;50.888;4.746;2023-03-19T08:19:06;16.10;99.90
21570;DHT22;57598;50.888;4.746;2023-03-19T08:21:33;16.20;99.90
21570;DHT22;57598;50.888;4.746;2023-03-19T08:24:00;16.50;99.90
21570;DHT22;57598;50.888;4.746;2023-03-19T08:26:27;16.80;99.90
21570;DHT22;57598;50.888;4.746;2023-03-19T08:28:55;16.80;99.90
21570;DHT22;57598;50.888;4.746;2023-03-19T08:31:22;16.80;99.90
21570;DHT22;57598;50.888;4.746;2023-03-19T08:33:52;16.80;99.90
21570;DHT22;57598;50.888;4.746;2023-03-19T08:36:20;17.10;99.90
21570;DHT22;57598;50.888;4.746;2023-03-19T08:38:56;17.00;99.90
21570;DHT22;57598;50.888;4.746;2023-03-19T08:41:23;17.30;99.90
21570;DHT22;57598;50.888;4.746;2023-03-19T08:43:51;17.40;99.90
21570;DHT22;57598;50.888;4.746;2023-03-19T08:46:19;17.80;99.90
21570;DHT22;57598;50.888;4.746;2023-03-19T08:48:46;18.20;99.90
21570;DHT22;57598;50.888;4.746;2023-03-19T08:51:13;18.30;99.90
21570;DHT22;57598;50.888;4.746;2023-03-19T08:53:40;18.30;99.90
21570;DHT22;57598;50.888;4.746;2023-03-19T08:56:07;17.90;99.90
21570;DHT22;57598;50.888;4.746;2023-03-19T08:58:34;18.10;99.90
21570;DHT22;57598;50.888;4.746;2023-03-19T09:01:02;18.30;99.90
21570;DHT22;57598;50.888;4.746;2023-03-19T09:03:31;18.80;99.90
21570;DHT22;57598;50.888;4.746;2023-03-19T09:05:59;19.10;99.90
21570;DHT22;57598;50.888;4.746;2023-03-19T09:08:26;19.20;99.90
21570;DHT22;57598;50.888;4.746;2023-03-19T09:10:55;19.20;99.90
21570;DHT22;57598;50.888;4.746;2023-03-19T09:13:22;18.90;99.90
21570;DHT22;57598;50.888;4.746;2023-03-19T09:15:50;18.90;99.90
21570;DHT22;57598;50.888;4.746;2023-03-19T09:18:17;18.90;99.90
21570;DHT22;57598;50.888;4.746;2023-03-19T09:20:46;19.60;99.90
21570;DHT22;57598;50.888;4.746;2023-03-19T09:23:13;20.00;99.90
21570;DHT22;57598;50.888;4.746;2023-03-19T09:25:40;20.70;99.90
21570;DHT22;57598;50.888;4.746;2023-03-19T09:28:07;20.80;99.90
21570;DHT22;57598;50.888;4.746;2023-03-19T09:30:36;20.50;99.90
21570;DHT22;57598;50.888;4.746;2023-03-19T09:33:03;20.40;99.90
21570;DHT22;57598;50.888;4.746;2023-03-19T09:35:31;19.90;99.90
21570;DHT22;57598;50.888;4.746;2023-03-19T09:38:00;19.80;99.90
21570;DHT22;57598;50.888;4.746;2023-03-19T09:40:37;20.70;99.90
21570;DHT22;57598;50.888;4.746;2023-03-19T09:43:40;21.00;99.90
21570;DHT22;57598;50.888;4.746;2023-03-19T09:46:13;20.90;99.90
21570;DHT22;57598;50.888;4.746;2023-03-19T09:48:47;21.50;99.90
21570;DHT22;57598;50.888;4.746;2023-03-19T09:51:18;21.40;99.90
21570;DHT22;57598;50.888;4.746;2023-03-19T09:53:55;21.40;99.90
21570;DHT22;57598;50.888;4.746;2023-03-19T09:56:31;21.90;99.80
21570;DHT22;57598;50.888;4.746;2023-03-19T09:58:59;22.20;99.50
21570;DHT22;57598;50.888;4.746;2023-03-19T10:01:35;22.90;98.10
21570;DHT22;57598;50.888;4.746;2023-03-19T10:04:26;23.40;95.80
21570;DHT22;57598;50.888;4.746;2023-03-19T10:07:04;23.00;96.00
21570;DHT22;57598;50.888;4.746;2023-03-19T10:09:47;22.90;96.00
21570;DHT22;57598;50.888;4.746;2023-03-19T10:12:40;23.30;93.90
21570;DHT22;57598;50.888;4.746;2023-03-19T10:15:16;22.10;94.50
21570;DHT22;57598;50.888;4.746;2023-03-19T10:17:51;21.60;94.70
21570;DHT22;57598;50.888;4.746;2023-03-19T10:20:28;20.80;95.50
21570;DHT22;57598;50.888;4.746;2023-03-19T10:23:02;20.30;96.90
21570;DHT22;57598;50.888;4.746;2023-03-19T10:25:37;19.80;97.20
21570;DHT22;57598;50.888;4.746;2023-03-19T10:28:13;19.90;98.10
21570;DHT22;57598;50.888;4.746;2023-03-19T10:30:48;20.90;97.10
21570;DHT22;57598;50.888;4.746;2023-03-19T10:33:21;21.40;96.50
21570;DHT22;57598;50.888;4.746;2023-03-19T10:35:57;21.60;94.40
21570;DHT22;57598;50.888;4.746;2023-03-19T10:38:27;20.70;96.10
21570;DHT22;57598;50.888;4.746;2023-03-19T10:41:20;19.60;98.20
21570;DHT22;57598;50.888;4.746;2023-03-19T10:43:52;19.20;99.10
21570;DHT22;57598;50.888;4.746;2023-03-19T10:46:20;18.70;99.80
21570;DHT22;57598;50.888;4.746;2023-03-19T10:48:47;18.20;99.90
21570;DHT22;57598;50.888;4.746;2023-03-19T10:51:17;18.10;99.90
21570;DHT22;57598;50.888;4.746;2023-03-19T10:53:47;17.90;99.90
21570;DHT22;57598;50.888;4.746;2023-03-19T10:56:20;17.80;99.90
21570;DHT22;57598;50.888;4.746;2023-03-19T10:59:01;18.00;99.90
21570;DHT22;57598;50.888;4.746;2023-03-19T11:01:32;17.90;99.90
21570;DHT22;57598;50.888;4.746;2023-03-19T11:04:01;17.90;99.90
21570;DHT22;57598;50.888;4.746;2023-03-19T11:06:39;18.20;99.90
21570;DHT22;57598;50.888;4.746;2023-03-19T11:09:23;18.50;99.90
21570;DHT22;57598;50.888;4.746;2023-03-19T11:11:57;19.20;99.90
21570;DHT22;57598;50.888;4.746;2023-03-19T11:14:34;19.70;99.90
21570;DHT22;57598;50.888;4.746;2023-03-19T11:17:13;20.50;98.30
21570;DHT22;57598;50.888;4.746;2023-03-19T11:19:49;20.60;98.10
21570;DHT22;57598;50.888;4.746;2023-03-19T11:22:23;20.20;97.20
21570;DHT22;57598;50.888;4.746;2023-03-19T11:24:53;19.90;97.60
21570;DHT22;57598;50.888;4.746;2023-03-19T11:27:32;19.50;98.00
21570;DHT22;57598;50.888;4.746;2023-03-19T11:30:11;19.10;98.60
21570;DHT22;57598;50.888;4.746;2023-03-19T11:35:58;18.40;99.40
21570;DHT22;57598;50.888;4.746;2023-03-19T11:38:35;18.10;99.90
21570;DHT22;57598;50.888;4.746;2023-03-19T11:41:11;18.10;99.90
21570;DHT22;57598;50.888;4.746;2023-03-19T11:43:48;17.80;99.90
21570;DHT22;57598;50.888;4.746;2023-03-19T11:46:28;18.00;99.90
21570;DHT22;57598;50.888;4.746;2023-03-19T11:49:24;17.80;99.90
21570;DHT22;57598;50.888;4.746;2023-03-19T11:51:58;17.70;99.90
21570;DHT22;57598;50.888;4.746;2023-03-19T11:54:41;17.80;99.90
21570;DHT22;57598;50.888;4.746;2023-03-19T11:57:15;17.80;99.90
21570;DHT22;57598;50.888;4.746;2023-03-19T11:59:55;18.00;99.90
21570;DHT22;57598;50.888;4.746;2023-03-19T12:02:50;17.90;99.90
21570;DHT22;57598;50.888;4.746;2023-03-19T12:05:29;17.80;99.90
21570;DHT22;57598;50.888;4.746;2023-03-19T12:08:09;18.30;99.90
21570;DHT22;57598;50.888;4.746;2023-03-19T12:10:44;18.50;99.90
21570;DHT22;57598;50.888;4.746;2023-03-19T12:13:27;18.50;99.90
21570;DHT22;57598;50.888;4.746;2023-03-19T12:16:08;18.50;99.90
21570;DHT22;57598;50.888;4.746;2023-03-19T12:18:51;18.60;99.80
21570;DHT22;57598;50.888;4.746;2023-03-19T12:21:28;18.30;99.90
21570;DHT22;57598;50.888;4.746;2023-03-19T12:24:03;18.10;99.90
21570;DHT22;57598;50.888;4.746;2023-03-19T12:26:39;17.90;99.90
21570;DHT22;57598;50.888;4.746;2023-03-19T12:29:19;17.70;99.90
21570;DHT22;57598;50.888;4.746;2023-03-19T12:32:15;17.70;99.90
21570;DHT22;57598;50.888;4.746;2023-03-19T12:34:50;18.10;99.90
21570;DHT22;57598;50.888;4.746;2023-03-19T12:37:21;18.90;99.90
21570;DHT22;57598;50.888;4.746;2023-03-19T12:40:00;18.80;99.90
21570;DHT22;57598;50.888;4.746;2023-03-19T12:42:33;18.40;99.90
21570;DHT22;57598;50.888;4.746;2023-03-19T12:45:11;18.10;99.90
21570;DHT22;57598;50.888;4.746;2023-03-19T12:47:43;17.00;99.90
21570;DHT22;57598;50.888;4.746;2023-03-19T12:50:17;16.60;99.90
21570;DHT22;57598;50.888;4.746;2023-03-19T12:52:48;16.40;99.90
21570;DHT22;57598;50.888;4.746;2023-03-19T12:55:30;16.40;99.90
21570;DHT22;57598;50.888;4.746;2023-03-19T12:58:03;16.50;99.90
21570;DHT22;57598;50.888;4.746;2023-03-19T13:00:39;16.70;99.90
21570;DHT22;57598;50.888;4.746;2023-03-19T13:03:18;16.70;99.90
21570;DHT22;57598;50.888;4.746;2023-03-19T13:05:54;16.80;99.90
21570;DHT22;57598;50.888;4.746;2023-03-19T13:08:31;16.90;99.90
21570;DHT22;57598;50.888;4.746;2023-03-19T13:11:07;16.90;99.90
21570;DHT22;57598;50.888;4.746;2023-03-19T13:13:52;17.50;99.90
21570;DHT22;57598;50.888;4.746;2023-03-19T13:16:31;18.30;99.90
21570;DHT22;57598;50.888;4.746;2023-03-19T13:19:09;19.10;99.90
21570;DHT22;57598;50.888;4.746;2023-03-19T13:21:44;18.40;99.90
21570;DHT22;57598;50.888;4.746;2023-03-19T13:24:18;18.40;99.90
21570;DHT22;57598;50.888;4.746;2023-03-19T13:26:48;17.90;99.90
21570;DHT22;57598;50.888;4.746;2023-03-19T13:29:19;17.40;99.90
21570;DHT22;57598;50.888;4.746;2023-03-19T13:31:46;17.90;99.90
21570;DHT22;57598;50.888;4.746;2023-03-19T13:34:23;18.40;99.90
21570;DHT22;57598;50.888;4.746;2023-03-19T13:36:59;18.10;99.90
21570;DHT22;57598;50.888;4.746;2023-03-19T13:39:29;18.20;99.90
21570;DHT22;57598;50.888;4.746;2023-03-19T13:42:09;17.80;99.90
21570;DHT22;57598;50.888;4.746;2023-03-19T13:44:47;18.00;99.90
21570;DHT22;57598;50.888;4.746;2023-03-19T13:47:39;17.70;99.90
21570;DHT22;57598;50.888;4.746;2023-03-19T13:50:28;17.40;99.90
21570;DHT22;57598;50.888;4.746;2023-03-19T13:53:32;16.80;99.90
21570;DHT22;57598;50.888;4.746;2023-03-19T13:56:02;16.90;99.90
21570;DHT22;57598;50.888;4.746;2023-03-19T13:58:30;17.10;99.90
21570;DHT22;57598;50.888;4.746;2023-03-19T14:01:47;18.10;99.90
21570;DHT22;57598;50.888;4.746;2023-03-19T14:04:23;19.20;99.90
21570;DHT22;57598;50.888;4.746;2023-03-19T14:07:08;19.20;99.90
21570;DHT22;57598;50.888;4.746;2023-03-19T14:09:39;19.20;99.90
21570;DHT22;57598;50.888;4.746;2023-03-19T14:12:22;19.20;99.80
21570;DHT22;57598;50.888;4.746;2023-03-19T14:14:54;19.30;99.40
21570;DHT22;57598;50.888;4.746;2023-03-19T14:17:31;19.30;99.90
21570;DHT22;57598;50.888;4.746;2023-03-19T14:20:21;18.80;99.90
21570;DHT22;57598;50.888;4.746;2023-03-19T14:23:02;18.00;99.90
21570;DHT22;57598;50.888;4.746;2023-03-19T14:26:08;17.90;99.90
21570;DHT22;57598;50.888;4.746;2023-03-19T14:28:48;17.50;99.90
21570;DHT22;57598;50.888;4.746;2023-03-19T14:34:13;17.10;99.90
21570;DHT22;57598;50.888;4.746;2023-03-19T14:36:48;16.50;99.90
21570;DHT22;57598;50.888;4.746;2023-03-19T14:39:21;16.40;99.90
21570;DHT22;57598;50.888;4.746;2023-03-19T14:41:53;16.70;99.90
21570;DHT22;57598;50.888;4.746;2023-03-19T14:44:48;16.60;99.90
21570;DHT22;57598;50.888;4.746;2023-03-19T14:50:48;16.20;99.90
21570;DHT22;57598;50.888;4.746;2023-03-19T14:53:39;16.10;99.90
21570;DHT22;57598;50.888;4.746;2023-03-19T14:56:13;16.00;99.90
21570;DHT22;57598;50.888;4.746;2023-03-19T14:58:49;16.10;99.90
21570;DHT22;57598;50.888;4.746;2023-03-19T15:01:18;16.00;99.90
21570;DHT22;57598;50.888;4.746;2023-03-19T15:03:55;16.20;99.90
21570;DHT22;57598;50.888;4.746;2023-03-19T15:06:33;16.20;99.90
21570;DHT22;57598;50.888;4.746;2023-03-19T15:09:13;16.00;99.90
21570;DHT22;57598;50.888;4.746;2023-03-19T15:12:08;15.70;99.90
21570;DHT22;57598;50.888;4.746;2023-03-19T15:14:49;15.80;99.90
21570;DHT22;57598;50.888;4.746;2023-03-19T15:17:21;15.60;99.90
21570;DHT22;57598;50.888;4.746;2023-03-19T15:19:52;15.40;99.90
21570;DHT22;57598;50.888;4.746;2023-03-19T15:22:26;15.60;99.90
21570;DHT22;57598;50.888;4.746;2023-03-19T15:25:04;15.90;99.90
21570;DHT22;57598;50.888;4.746;2023-03-19T15:27:42;15.90;99.90
21570;DHT22;57598;50.888;4.746;2023-03-19T15:30:20;15.60;99.90
21570;DHT22;57598;50.888;4.746;2023-03-19T15:32:55;15.70;99.90
21570;DHT22;57598;50.888;4.746;2023-03-19T15:35:25;15.70;99.90
21570;DHT22;57598;50.888;4.746;2023-03-19T15:37:57;15.70;99.90
21570;DHT22;57598;50.888;4.746;2023-03-19T15:40:27;15.70;99.90
21570;DHT22;57598;50.888;4.746;2023-03-19T15:42:59;15.10;99.90
21570;DHT22;57598;50.888;4.746;2023-03-19T15:45:28;14.70;99.90
21570;DHT22;57598;50.888;4.746;2023-03-19T15:48:03;14.80;99.90
21570;DHT22;57598;50.888;4.746;2023-03-19T15:50:36;14.70;99.90
21570;DHT22;57598;50.888;4.746;2023-03-19T15:53:12;14.50;99.90
21570;DHT22;57598;50.888;4.746;2023-03-19T15:55:41;14.30;99.90
21570;DHT22;57598;50.888;4.746;2023-03-19T15:58:15;14.50;99.90
21570;DHT22;57598;50.888;4.746;2023-03-19T16:00:43;14.20;99.90
21570;DHT22;57598;50.888;4.746;2023-03-19T16:03:15;14.20;99.90
21570;DHT22;57598;50.888;4.746;2023-03-19T16:05:43;14.00;99.90
21570;DHT22;57598;50.888;4.746;2023-03-19T16:08:17;13.90;99.90